Time;durP1;ratioP1;P1;durP2;ratioP2;P2;SDS_P1;SDS_P2;PMS_P1;PMS_P2;Temp;Humidity;BMP_temperature;BMP_pressure;BME280_temperature;BME280_humidity;BME280_pressure;Samples;Min_cycle;Max_cycle;Signal;HPM_P1;HPM_P2
2021/12/28 00:01:16;;;;;;;3.20;1.50;;;13.40;64.40;;;;;;5086988;28;20191;-53
2021/12/28 00:03:44;;;;;;;2.50;1.93;;;13.20;65.00;;;;;;5093702;28;20197;-50
2021/12/28 00:06:11;;;;;;;5.30;2.17;;;13.30;64.90;;;;;;5089536;28;20474;-52
2021/12/28 00:08:37;;;;;;;1.77;1.30;;;13.10;64.80;;;;;;5087219;28;20457;-50
2021/12/28 00:11:04;;;;;;;1.93;1.40;;;13.30;64.80;;;;;;5084898;28;20484;-54
2021/12/28 00:13:30;;;;;;;5.97;1.60;;;13.00;65.00;;;;;;5090156;28;20788;-50
2021/12/28 00:18:23;;;;;;;4.53;1.90;;;13.20;64.80;;;;;;5082413;28;20497;-54
2021/12/28 00:20:52;;;;;;;1.83;1.63;;;13.20;64.50;;;;;;5083258;28;20218;-52
2021/12/28 00:23:24;;;;;;;2.87;1.77;;;13.30;64.20;;;;;;5090964;28;20443;-51
2021/12/28 00:25:53;;;;;;;3.40;2.23;;;13.40;63.70;;;;;;5075604;28;20933;-53
2021/12/28 00:28:19;;;;;;;4.93;1.80;;;13.40;63.60;;;;;;5083991;28;20917;-51
2021/12/28 00:30:47;;;;;;;5.60;2.73;;;13.20;64.10;;;;;;5077800;28;20494;-52
2021/12/28 00:33:13;;;;;;;4.27;1.97;;;13.40;63.70;;;;;;5089947;28;20526;-52
2021/12/28 00:35:41;;;;;;;4.27;1.57;;;13.50;63.00;;;;;;5078682;28;20782;-53
2021/12/28 00:38:09;;;;;;;8.43;1.53;;;13.60;62.80;;;;;;5086104;28;20940;-54
2021/12/28 00:40:37;;;;;;;4.07;1.50;;;13.60;62.30;;;;;;5076335;28;20441;-50
2021/12/28 00:43:03;;;;;;;3.20;1.70;;;13.60;62.30;;;;;;5087436;28;20912;-50
2021/12/28 00:45:30;;;;;;;4.90;1.50;;;13.20;62.60;;;;;;5083504;28;20536;-50
2021/12/28 00:47:56;;;;;;;5.00;1.63;;;12.90;63.80;;;;;;5081495;28;20463;-52
2021/12/28 00:50:23;;;;;;;3.50;2.00;;;12.90;64.40;;;;;;5089032;28;21290;-50
2021/12/28 00:52:49;;;;;;;7.27;2.00;;;12.90;64.50;;;;;;5084272;28;20426;-50
2021/12/28 00:55:16;;;;;;;4.83;2.17;;;12.90;64.20;;;;;;5084964;28;20526;-52
2021/12/28 00:57:42;;;;;;;5.10;2.53;;;13.00;64.00;;;;;;5085366;28;20429;-51
2021/12/28 01:00:13;;;;;;;2.97;1.37;;;13.10;63.60;;;;;;5076011;28;20422;-50
2021/12/28 01:02:39;;;;;;;2.27;1.57;;;13.10;63.20;;;;;;5090163;28;20453;-52
2021/12/28 01:05:06;;;;;;;3.57;1.57;;;13.10;63.30;;;;;;5084962;28;20466;-53
2021/12/28 01:07:32;;;;;;;1.73;1.43;;;13.00;63.20;;;;;;5087096;28;20187;-53
2021/12/28 01:09:58;;;;;;;2.60;1.60;;;13.00;63.00;;;;;;5090370;28;20485;-54
2021/12/28 01:12:24;;;;;;;2.23;1.70;;;12.70;63.30;;;;;;5087301;28;20195;-50
2021/12/28 01:14:49;;;;;;;4.20;1.70;;;12.70;63.60;;;;;;5083919;28;20677;-49
2021/12/28 01:17:15;;;;;;;3.70;1.77;;;12.60;64.00;;;;;;5084884;28;20592;-52
2021/12/28 01:19:42;;;;;;;7.03;2.40;;;12.40;64.20;;;;;;5081385;28;20273;-53
2021/12/28 01:22:08;;;;;;;3.90;1.60;;;12.30;64.60;;;;;;5080003;28;20271;-51
2021/12/28 01:24:33;;;;;;;3.43;1.37;;;11.90;65.50;;;;;;5076441;28;21135;-50
2021/12/28 01:26:59;;;;;;;2.53;1.70;;;11.80;66.10;;;;;;5086316;28;20432;-51
2021/12/28 01:29:25;;;;;;;2.57;1.27;;;11.70;67.20;;;;;;5081115;28;20302;-51
2021/12/28 01:31:51;;;;;;;2.23;1.37;;;11.50;67.60;;;;;;5089474;28;20332;-49
2021/12/28 01:34:17;;;;;;;6.97;1.60;;;11.70;67.60;;;;;;5084776;28;20286;-51
2021/12/28 01:36:43;;;;;;;4.30;2.00;;;11.80;67.00;;;;;;5082965;28;20439;-53
2021/12/28 01:39:09;;;;;;;3.33;1.53;;;11.90;66.80;;;;;;5084727;28;20431;-50
2021/12/28 01:41:36;;;;;;;4.20;1.57;;;12.20;65.90;;;;;;5090339;28;20194;-52
2021/12/28 01:44:05;;;;;;;2.33;1.50;;;12.40;65.00;;;;;;5077543;28;20508;-53
2021/12/28 01:46:32;;;;;;;4.97;1.40;;;12.30;65.00;;;;;;5076310;28;20949;-53
2021/12/28 01:48:58;;;;;;;4.20;1.93;;;12.50;64.40;;;;;;5086053;28;20529;-51
2021/12/28 01:51:26;;;;;;;3.20;1.40;;;12.60;64.00;;;;;;5078094;28;20533;-54
2021/12/28 01:53:56;;;;;;;3.33;1.80;;;12.70;63.30;;;;;;5085879;28;20194;-49
2021/12/28 01:56:36;;;;;;;2.63;1.70;;;12.70;63.00;;;;;;5081306;28;20529;-51
2021/12/28 01:59:04;;;;;;;4.30;1.60;;;12.60;63.20;;;;;;5089777;28;20944;-51
2021/12/28 02:01:30;;;;;;;6.33;2.00;;;12.50;63.70;;;;;;5079602;28;20457;-53
2021/12/28 02:03:56;;;;;;;3.77;1.77;;;12.40;64.10;;;;;;5086368;28;20437;-52
2021/12/28 02:06:25;;;;;;;3.80;1.60;;;12.30;64.20;;;;;;5080081;28;20773;-52
2021/12/28 02:08:53;;;;;;;6.10;1.77;;;12.40;64.30;;;;;;5087416;28;20425;-50
2021/12/28 02:11:19;;;;;;;4.20;1.60;;;12.40;64.10;;;;;;5079457;28;20489;-53
2021/12/28 02:13:46;;;;;;;6.90;1.83;;;12.40;63.80;;;;;;5086053;28;20491;-53
2021/12/28 02:16:11;;;;;;;4.40;1.20;;;12.30;63.90;;;;;;5086304;28;20426;-51
2021/12/28 02:18:37;;;;;;;3.20;1.37;;;12.20;64.50;;;;;;5084101;28;20458;-53
2021/12/28 02:21:06;;;;;;;5.00;1.50;;;12.20;64.90;;;;;;5083099;28;20207;-52
2021/12/28 02:23:33;;;;;;;3.53;1.20;;;12.10;65.30;;;;;;5085990;28;20191;-50
2021/12/28 02:25:58;;;;;;;5.50;1.70;;;11.90;65.70;;;;;;5084966;28;20839;-53
2021/12/28 02:28:24;;;;;;;3.83;1.70;;;11.80;66.40;;;;;;5089251;28;20418;-51
2021/12/28 02:30:53;;;;;;;8.77;1.90;;;11.70;66.40;;;;;;5083985;28;20230;-49
2021/12/28 02:33:23;;;;;;;4.40;1.67;;;11.60;67.10;;;;;;5085477;28;20490;-51
2021/12/28 02:35:50;;;;;;;10.70;1.87;;;11.60;67.10;;;;;;5081560;28;20922;-50
2021/12/28 02:38:15;;;;;;;3.20;1.50;;;11.50;67.10;;;;;;5083593;28;20944;-50
2021/12/28 02:40:43;;;;;;;3.80;1.57;;;11.30;68.00;;;;;;5080747;28;20434;-51
2021/12/28 02:43:12;;;;;;;6.57;2.00;;;11.50;67.80;;;;;;5086951;28;20561;-49
2021/12/28 02:46:08;;;;;;;4.97;2.10;;;11.40;67.60;;;;;;5086064;28;20533;-51
2021/12/28 02:48:35;;;;;;;3.33;1.37;;;11.30;68.10;;;;;;5071324;28;20450;-50
2021/12/28 02:51:06;;;;;;;6.63;1.60;;;11.40;68.00;;;;;;5076499;28;20517;-52
2021/12/28 02:53:31;;;;;;;9.70;1.70;;;11.50;67.60;;;;;;5081167;28;20442;-50
2021/12/28 02:55:57;;;;;;;8.37;1.83;;;11.50;67.00;;;;;;5088595;28;20421;-52
2021/12/28 02:58:25;;;;;;;8.57;3.07;;;11.50;67.10;;;;;;5085204;28;20200;-50
2021/12/28 03:00:55;;;;;;;7.93;1.90;;;11.30;67.50;;;;;;5079714;28;20243;-50
2021/12/28 03:03:26;;;;;;;2.80;1.70;;;11.20;68.00;;;;;;5073994;28;20457;-49
2021/12/28 03:05:54;;;;;;;5.37;1.30;;;11.20;68.00;;;;;;5081918;28;20429;-51
2021/12/28 03:08:21;;;;;;;4.40;1.80;;;11.40;67.60;;;;;;5083381;28;20459;-52
2021/12/28 03:10:48;;;;;;;5.53;1.90;;;11.30;67.60;;;;;;5080460;28;20493;-51
2021/12/28 03:13:17;;;;;;;7.93;2.40;;;11.30;67.70;;;;;;5088440;28;20440;-52
2021/12/28 03:15:43;;;;;;;10.80;2.43;;;11.30;68.10;;;;;;5081093;28;20439;-50
2021/12/28 03:18:09;;;;;;;5.67;1.67;;;11.30;67.80;;;;;;5082369;28;20956;-49
2021/12/28 03:20:35;;;;;;;5.10;1.87;;;11.40;67.40;;;;;;5076338;28;20238;-51
2021/12/28 03:23:00;;;;;;;5.27;1.80;;;11.40;68.10;;;;;;5082318;28;20651;-52
2021/12/28 03:25:26;;;;;;;5.03;2.00;;;11.50;66.60;;;;;;5085772;28;20422;-50
2021/12/28 03:27:52;;;;;;;5.67;1.90;;;11.50;67.00;;;;;;5082886;28;20184;-51
2021/12/28 03:30:18;;;;;;;9.10;2.37;;;11.40;67.10;;;;;;5080525;28;20756;-51
2021/12/28 03:32:45;;;;;;;4.70;1.50;;;11.20;67.60;;;;;;5085204;28;20220;-53
2021/12/28 03:35:12;;;;;;;6.70;2.43;;;11.10;68.00;;;;;;5089033;28;20422;-50
2021/12/28 03:37:39;;;;;;;6.27;2.27;;;11.30;67.80;;;;;;5084184;28;20431;-51
2021/12/28 03:40:07;;;;;;;6.00;2.10;;;11.40;67.40;;;;;;5086452;28;20421;-51
2021/12/28 03:42:33;;;;;;;4.23;1.60;;;11.40;67.20;;;;;;5086038;28;20433;-53
2021/12/28 03:44:59;;;;;;;4.83;1.83;;;11.30;67.40;;;;;;5094060;28;20443;-51
2021/12/28 03:47:24;;;;;;;4.20;1.30;;;11.40;67.30;;;;;;5095611;28;20917;-52
2021/12/28 03:49:50;;;;;;;6.40;2.03;;;11.40;67.40;;;;;;5094783;28;20677;-50
2021/12/28 03:52:16;;;;;;;2.77;1.80;;;11.40;66.90;;;;;;5091755;28;20203;-50
2021/12/28 03:54:41;;;;;;;5.77;2.17;;;11.40;67.10;;;;;;5089300;28;20192;-52
2021/12/28 03:57:07;;;;;;;5.07;1.80;;;11.30;66.90;;;;;;5092538;28;20191;-49
2021/12/28 03:59:33;;;;;;;6.53;2.77;;;11.40;66.90;;;;;;5090942;28;20833;-52
2021/12/28 04:01:58;;;;;;;4.23;1.43;;;11.20;67.00;;;;;;5088850;28;20187;-53
2021/12/28 04:04:24;;;;;;;3.67;3.23;;;11.00;67.90;;;;;;5088859;28;20298;-51
2021/12/28 04:06:50;;;;;;;6.77;1.90;;;11.00;68.30;;;;;;5087051;28;20200;-50
2021/12/28 04:09:23;;;;;;;6.80;1.83;;;10.90;68.90;;;;;;5091313;28;20801;-50
2021/12/28 04:11:49;;;;;;;3.70;1.87;;;11.00;68.80;;;;;;5090127;28;20242;-51
2021/12/28 04:14:15;;;;;;;4.63;1.90;;;11.00;68.30;;;;;;5095273;28;20432;-51
2021/12/28 04:16:41;;;;;;;3.90;1.60;;;10.90;68.00;;;;;;5088815;28;20937;-51
2021/12/28 04:19:07;;;;;;;8.40;1.77;;;11.00;68.60;;;;;;5091229;28;20552;-51
2021/12/28 04:21:34;;;;;;;3.63;1.83;;;11.20;68.10;;;;;;5090091;28;20698;-50
2021/12/28 04:24:01;;;;;;;9.17;1.57;;;11.30;67.50;;;;;;5095620;28;20201;-53
2021/12/28 04:26:28;;;;;;;5.60;1.90;;;11.20;67.80;;;;;;5090825;28;20527;-50
2021/12/28 04:28:54;;;;;;;18.00;3.40;;;11.30;67.80;;;;;;5090124;28;20468;-51
2021/12/28 04:31:20;;;;;;;6.70;2.00;;;11.10;68.10;;;;;;5092066;28;20499;-50
2021/12/28 04:33:46;;;;;;;7.87;2.20;;;11.00;68.40;;;;;;5091288;28;20433;-53
2021/12/28 04:36:14;;;;;;;5.80;1.77;;;11.10;69.00;;;;;;5087150;28;20310;-52
2021/12/28 04:38:41;;;;;;;9.53;1.77;;;11.30;68.30;;;;;;5092734;28;20192;-52
2021/12/28 04:41:08;;;;;;;7.87;2.50;;;11.40;68.00;;;;;;5088575;28;20440;-50
2021/12/28 04:43:34;;;;;;;8.13;2.50;;;11.30;68.40;;;;;;5091620;28;20513;-51
2021/12/28 04:46:00;;;;;;;2.97;1.57;;;11.20;68.50;;;;;;5081149;28;20433;-51
2021/12/28 04:48:25;;;;;;;5.63;2.23;;;11.10;69.10;;;;;;5092957;28;20476;-53
2021/12/28 04:50:51;;;;;;;4.67;1.80;;;11.00;69.80;;;;;;5081713;28;20504;-52
2021/12/28 04:53:19;;;;;;;3.10;1.73;;;10.80;70.30;;;;;;5080322;28;20222;-50
2021/12/28 04:55:47;;;;;;;5.53;1.57;;;10.80;70.90;;;;;;5080103;28;20253;-52
2021/12/28 04:58:13;;;;;;;4.73;1.70;;;10.80;71.10;;;;;;5078247;28;20439;-51
2021/12/28 05:00:40;;;;;;;7.40;2.43;;;10.80;71.20;;;;;;5079412;28;20447;-53
2021/12/28 05:03:07;;;;;;;3.50;1.20;;;10.80;70.70;;;;;;5084926;28;20425;-49
2021/12/28 05:05:33;;;;;;;5.50;2.17;;;10.80;71.60;;;;;;5084605;28;20418;-50
2021/12/28 05:07:59;;;;;;;4.00;1.63;;;10.80;71.50;;;;;;5077363;28;20439;-50
2021/12/28 05:10:25;;;;;;;4.27;1.83;;;10.90;70.80;;;;;;5081103;28;21991;-50
2021/12/28 05:12:50;;;;;;;4.07;1.83;;;11.10;70.60;;;;;;5079993;28;20191;-50
2021/12/28 05:15:17;;;;;;;4.40;1.47;;;11.00;70.60;;;;;;5080442;28;20252;-50
2021/12/28 05:17:43;;;;;;;4.00;1.40;;;11.00;71.10;;;;;;5079361;28;20215;-53
2021/12/28 05:20:10;;;;;;;4.07;1.50;;;11.00;71.00;;;;;;5079645;28;20461;-50
2021/12/28 05:22:36;;;;;;;7.03;1.83;;;11.00;71.60;;;;;;5085442;28;20429;-49
2021/12/28 05:25:02;;;;;;;10.90;1.90;;;10.90;71.60;;;;;;5077748;28;20448;-50
2021/12/28 05:27:28;;;;;;;5.43;1.70;;;11.00;71.80;;;;;;5081790;28;20200;-52
2021/12/28 05:29:54;;;;;;;3.07;1.80;;;11.10;71.40;;;;;;5078810;28;20579;-52
2021/12/28 05:32:19;;;;;;;3.30;1.67;;;10.90;71.70;;;;;;5084303;28;20203;-53
2021/12/28 05:34:45;;;;;;;3.83;1.83;;;10.80;71.90;;;;;;5078086;28;20195;-52
2021/12/28 05:37:10;;;;;;;4.40;1.73;;;10.90;72.40;;;;;;5075674;28;20227;-53
2021/12/28 05:39:36;;;;;;;2.97;1.90;;;10.80;72.60;;;;;;5084735;28;20192;-52
2021/12/28 05:42:04;;;;;;;5.70;1.50;;;10.80;72.90;;;;;;5081400;28;20288;-53
2021/12/28 05:44:30;;;;;;;3.10;1.70;;;10.80;73.00;;;;;;5081706;28;20474;-51
2021/12/28 05:46:55;;;;;;;7.27;1.83;;;10.60;73.40;;;;;;5081457;28;20519;-51
2021/12/28 05:49:24;;;;;;;3.73;1.87;;;10.60;74.10;;;;;;5087573;28;20195;-50
2021/12/28 05:51:50;;;;;;;2.60;1.50;;;10.60;74.10;;;;;;5077867;28;20596;-50
2021/12/28 05:54:17;;;;;;;6.07;2.73;;;10.50;74.50;;;;;;5077289;28;20441;-53
2021/12/28 05:56:43;;;;;;;3.60;1.90;;;10.40;75.00;;;;;;5080127;28;20188;-53
2021/12/28 05:59:09;;;;;;;3.50;2.10;;;10.50;74.90;;;;;;5080643;28;20886;-52
2021/12/28 06:01:35;;;;;;;4.70;1.37;;;10.50;75.20;;;;;;5075620;28;20560;-51
2021/12/28 06:04:01;;;;;;;3.53;2.13;;;10.60;75.30;;;;;;5075425;28;20229;-50
2021/12/28 06:06:26;;;;;;;4.50;1.60;;;10.90;74.70;;;;;;5079208;28;20515;-53
2021/12/28 06:08:52;;;;;;;4.93;1.63;;;10.80;74.00;;;;;;5079509;28;20191;-50
2021/12/28 06:11:19;;;;;;;3.90;2.00;;;10.80;74.40;;;;;;5074790;28;20227;-51
2021/12/28 06:13:45;;;;;;;5.70;2.40;;;11.00;74.20;;;;;;5078023;28;20440;-53
2021/12/28 06:16:11;;;;;;;4.17;1.53;;;11.20;73.80;;;;;;5080102;28;20431;-52
2021/12/28 06:18:37;;;;;;;3.10;1.70;;;11.20;73.80;;;;;;5074300;28;20525;-49
2021/12/28 06:21:03;;;;;;;3.50;1.70;;;11.40;73.70;;;;;;5079626;28;20435;-53
2021/12/28 06:23:29;;;;;;;2.20;1.60;;;11.60;73.10;;;;;;5086494;28;20897;-49
2021/12/28 06:25:55;;;;;;;2.50;1.33;;;11.50;72.00;;;;;;5087128;28;20512;-52
2021/12/28 06:28:21;;;;;;;6.47;1.93;;;11.50;71.60;;;;;;5086884;28;20453;-51
2021/12/28 06:30:46;;;;;;;2.57;1.77;;;11.70;71.90;;;;;;5086704;28;20227;-50
2021/12/28 06:33:12;;;;;;;3.33;1.63;;;11.70;71.80;;;;;;5084348;28;20194;-49
2021/12/28 06:35:38;;;;;;;3.57;1.50;;;11.90;71.50;;;;;;5083906;28;20656;-49
2021/12/28 06:38:04;;;;;;;7.50;1.50;;;12.30;69.90;;;;;;5081505;28;20433;-50
2021/12/28 06:40:30;;;;;;;1.57;1.47;;;12.30;68.90;;;;;;5084694;28;20932;-50
2021/12/28 06:42:55;;;;;;;1.73;1.30;;;12.40;68.80;;;;;;5084101;28;20187;-49
2021/12/28 06:45:21;;;;;;;3.53;1.60;;;12.30;68.40;;;;;;5085927;28;20184;-51
2021/12/28 06:47:48;;;;;;;1.47;1.27;;;12.10;69.40;;;;;;5085219;28;20187;-49
2021/12/28 06:50:14;;;;;;;2.30;1.57;;;12.40;68.60;;;;;;5076586;28;20231;-52
2021/12/28 06:52:40;;;;;;;3.17;1.60;;;12.40;68.50;;;;;;5089713;28;20499;-50
2021/12/28 06:55:08;;;;;;;1.50;1.40;;;12.50;68.10;;;;;;5083965;28;20442;-51
2021/12/28 06:57:33;;;;;;;1.93;1.40;;;12.60;67.60;;;;;;5090445;28;20536;-51
2021/12/28 07:00:00;;;;;;;1.80;1.10;;;12.40;66.70;;;;;;5086746;28;20522;-55
2021/12/28 07:02:25;;;;;;;2.40;1.20;;;12.60;67.40;;;;;;5085968;28;20199;-52
2021/12/28 07:04:52;;;;;;;2.20;1.30;;;12.90;66.10;;;;;;5085602;28;20437;-51
2021/12/28 07:07:18;;;;;;;2.83;1.20;;;13.10;65.50;;;;;;5083167;28;20191;-53
2021/12/28 07:09:44;;;;;;;2.70;1.60;;;13.30;64.70;;;;;;5079017;28;20473;-53
2021/12/28 07:12:10;;;;;;;2.03;1.23;;;13.50;64.00;;;;;;5085370;28;20516;-51
2021/12/28 07:14:36;;;;;;;1.63;1.23;;;13.50;63.40;;;;;;5083453;28;20190;-54
2021/12/28 07:17:01;;;;;;;1.17;1.07;;;13.50;63.00;;;;;;5074856;28;20488;-54
2021/12/28 07:19:27;;;;;;;1.50;1.30;;;13.30;63.40;;;;;;5089098;28;20317;-50
2021/12/28 07:21:53;;;;;;;2.23;1.40;;;13.50;63.40;;;;;;5086110;28;20194;-54
2021/12/28 07:24:18;;;;;;;1.80;1.70;;;13.50;63.10;;;;;;5083096;28;20277;-50
2021/12/28 07:26:44;;;;;;;1.60;1.33;;;13.60;62.90;;;;;;5081580;28;20552;-51
2021/12/28 07:29:11;;;;;;;1.50;1.40;;;13.60;62.80;;;;;;5086526;28;20195;-52
2021/12/28 07:31:38;;;;;;;1.90;1.10;;;13.50;62.40;;;;;;5090218;28;20273;-52
2021/12/28 07:34:04;;;;;;;1.53;1.13;;;13.50;63.10;;;;;;5092263;28;20440;-53
2021/12/28 07:36:29;;;;;;;1.30;0.97;;;13.60;62.60;;;;;;5088468;28;20444;-50
2021/12/28 07:38:55;;;;;;;1.30;1.20;;;13.60;62.30;;;;;;5088400;28;20433;-51
2021/12/28 07:41:22;;;;;;;1.70;1.60;;;13.60;62.30;;;;;;5090045;28;20571;-54
2021/12/28 07:43:48;;;;;;;1.53;1.00;;;13.50;62.20;;;;;;5091035;28;20466;-51
2021/12/28 07:46:14;;;;;;;1.13;0.90;;;13.50;61.80;;;;;;5090209;28;20421;-53
2021/12/28 07:48:40;;;;;;;3.00;1.33;;;13.50;62.20;;;;;;5084289;28;20195;-53
2021/12/28 07:51:07;;;;;;;1.23;1.13;;;13.60;62.40;;;;;;5087012;28;20530;-53
2021/12/28 07:53:33;;;;;;;1.53;1.23;;;13.60;62.00;;;;;;5090558;28;20520;-54
2021/12/28 07:55:59;;;;;;;2.97;0.90;;;13.80;61.70;;;;;;5090345;28;20527;-53
2021/12/28 07:58:25;;;;;;;2.20;1.30;;;14.10;60.70;;;;;;5090022;28;20497;-53
2021/12/28 08:00:51;;;;;;;1.13;0.97;;;14.20;60.00;;;;;;5075045;28;20195;-54
2021/12/28 08:03:18;;;;;;;0.93;0.93;;;14.20;59.90;;;;;;5089364;28;20462;-54
2021/12/28 08:05:45;;;;;;;1.03;0.80;;;14.30;60.00;;;;;;5088589;28;20187;-54
2021/12/28 08:08:10;;;;;;;0.80;0.77;;;14.10;60.20;;;;;;5090955;28;20468;-54
2021/12/28 08:10:36;;;;;;;1.17;1.00;;;14.00;60.40;;;;;;5089586;28;20481;-53
2021/12/28 08:13:02;;;;;;;2.30;0.73;;;13.90;60.80;;;;;;5090698;28;20187;-53
2021/12/28 08:15:28;;;;;;;0.93;0.63;;;13.80;61.10;;;;;;5086063;28;20192;-54
2021/12/28 08:17:53;;;;;;;0.80;0.80;;;13.80;62.00;;;;;;5081248;28;20266;-54
2021/12/28 08:20:19;;;;;;;0.70;0.70;;;13.80;61.70;;;;;;5090154;28;20227;-53
2021/12/28 08:22:47;;;;;;;1.13;0.80;;;13.80;61.40;;;;;;5094357;28;20187;-54
2021/12/28 08:25:15;;;;;;;0.97;0.90;;;13.60;61.80;;;;;;5093615;28;20219;-54
2021/12/28 08:27:41;;;;;;;1.00;0.80;;;13.60;62.50;;;;;;5086028;28;20444;-53
2021/12/28 08:30:10;;;;;;;0.90;0.80;;;13.60;62.70;;;;;;5091632;28;21182;-53
2021/12/28 08:32:35;;;;;;;0.87;0.60;;;13.50;63.50;;;;;;5087613;28;20437;-54
2021/12/28 08:35:01;;;;;;;2.20;1.00;;;13.50;64.30;;;;;;5084982;28;20426;-53
2021/12/28 08:37:27;;;;;;;1.07;0.90;;;13.30;64.80;;;;;;5083036;28;20437;-53
2021/12/28 08:39:53;;;;;;;0.90;0.90;;;13.20;65.60;;;;;;5084507;28;20207;-53
2021/12/28 08:42:21;;;;;;;0.63;0.63;;;13.30;65.70;;;;;;5083653;28;20199;-54
2021/12/28 08:44:47;;;;;;;1.20;1.10;;;13.30;65.80;;;;;;5088545;28;20476;-54
2021/12/28 08:47:12;;;;;;;1.17;0.60;;;13.30;65.60;;;;;;5089413;28;20426;-54
2021/12/28 08:49:38;;;;;;;5.50;0.73;;;13.30;65.40;;;;;;5092580;28;20488;-55
2021/12/28 08:52:04;;;;;;;0.90;0.63;;;13.30;65.40;;;;;;5085525;28;20567;-54
2021/12/28 08:54:30;;;;;;;1.10;0.60;;;13.30;65.50;;;;;;5092325;28;20219;-54
2021/12/28 08:56:56;;;;;;;2.17;0.70;;;13.20;65.30;;;;;;5080763;28;20429;-54
2021/12/28 08:59:22;;;;;;;0.50;0.50;;;13.20;65.60;;;;;;5073489;28;21047;-54
2021/12/28 09:01:49;;;;;;;0.63;0.60;;;13.20;65.80;;;;;;5087826;28;20199;-54
2021/12/28 09:04:15;;;;;;;1.07;0.63;;;13.20;65.80;;;;;;5085194;28;20912;-54
2021/12/28 09:06:41;;;;;;;1.00;0.83;;;13.20;65.80;;;;;;5086064;28;20437;-54
2021/12/28 09:09:06;;;;;;;0.60;0.50;;;13.20;65.90;;;;;;5080321;28;20434;-51
2021/12/28 09:11:32;;;;;;;1.07;0.60;;;13.40;65.60;;;;;;5084072;28;20569;-54
2021/12/28 09:13:58;;;;;;;0.50;0.50;;;13.50;65.50;;;;;;5088432;28;20195;-55
2021/12/28 09:16:23;;;;;;;0.50;0.47;;;13.50;65.30;;;;;;5077324;28;20196;-53
2021/12/28 09:18:49;;;;;;;0.60;0.60;;;13.60;65.20;;;;;;5086783;28;20694;-54
2021/12/28 09:21:15;;;;;;;0.60;0.60;;;13.70;64.70;;;;;;5086182;28;20240;-53
2021/12/28 09:23:42;;;;;;;0.70;0.70;;;13.80;64.60;;;;;;5086527;28;20235;-55
2021/12/28 09:26:07;;;;;;;1.33;0.50;;;13.80;64.40;;;;;;5082044;28;20539;-53
2021/12/28 09:28:33;;;;;;;0.83;0.80;;;13.80;64.60;;;;;;5091985;28;20812;-54
2021/12/28 09:30:59;;;;;;;2.80;1.00;;;13.80;64.60;;;;;;5086071;28;20223;-53
2021/12/28 09:33:25;;;;;;;0.50;0.50;;;13.80;65.10;;;;;;5086870;28;20203;-54
2021/12/28 09:35:52;;;;;;;0.60;0.50;;;13.90;65.00;;;;;;5090743;28;20437;-53
2021/12/28 09:38:19;;;;;;;1.07;0.50;;;13.90;64.60;;;;;;5093464;28;20199;-53
2021/12/28 09:40:46;;;;;;;0.70;0.70;;;14.10;64.40;;;;;;5083152;28;20425;-51
2021/12/28 09:43:13;;;;;;;0.40;0.40;;;13.90;64.00;;;;;;5081103;28;20512;-54
2021/12/28 09:45:39;;;;;;;0.50;0.40;;;14.00;64.60;;;;;;5080684;28;20952;-54
2021/12/28 09:48:06;;;;;;;0.83;0.70;;;14.00;64.40;;;;;;5088067;28;20503;-53
2021/12/28 09:50:34;;;;;;;0.87;0.83;;;14.00;65.10;;;;;;5089407;28;20481;-52
2021/12/28 09:53:01;;;;;;;0.70;0.60;;;14.10;64.70;;;;;;5084353;28;20814;-53
2021/12/28 09:55:28;;;;;;;1.53;0.60;;;14.10;64.40;;;;;;5077980;28;20437;-54
2021/12/28 09:57:56;;;;;;;0.70;0.60;;;14.20;64.50;;;;;;5083963;28;20426;-53
2021/12/28 10:00:23;;;;;;;1.13;0.70;;;14.10;64.60;;;;;;5082385;28;20565;-54
2021/12/28 10:02:49;;;;;;;0.50;0.50;;;14.10;64.60;;;;;;5078526;28;20441;-52
2021/12/28 10:05:18;;;;;;;0.80;0.80;;;14.10;65.00;;;;;;5083624;28;20444;-53
2021/12/28 10:07:50;;;;;;;1.03;0.80;;;14.20;65.50;;;;;;5089131;28;20487;-54
2021/12/28 10:10:16;;;;;;;0.60;0.60;;;14.10;65.30;;;;;;5081065;28;20574;-53
2021/12/28 10:12:49;;;;;;;0.80;0.80;;;14.30;65.60;;;;;;5084284;28;20435;-54
2021/12/28 10:15:18;;;;;;;0.60;0.60;;;14.30;64.90;;;;;;5079340;28;20469;-53
2021/12/28 10:17:46;;;;;;;1.00;0.80;;;14.30;65.20;;;;;;5084042;28;20445;-55
2021/12/28 10:20:46;;;;;;;0.53;0.53;;;14.20;65.70;;;;;;5075399;28;20494;-54
2021/12/28 10:23:15;;;;;;;0.60;0.53;;;14.10;65.70;;;;;;5076904;28;20449;-56
2021/12/28 10:25:42;;;;;;;0.60;0.60;;;14.10;66.30;;;;;;5078702;28;20434;-54
2021/12/28 10:28:14;;;;;;;0.60;0.53;;;14.10;66.60;;;;;;5082067;28;20459;-57
2021/12/28 10:30:50;;;;;;;0.50;0.50;;;14.30;66.70;;;;;;5079360;28;20484;-55
2021/12/28 10:33:18;;;;;;;0.70;0.70;;;14.50;65.90;;;;;;5084470;28;21334;-53
2021/12/28 10:35:47;;;;;;;0.80;0.70;;;14.60;65.80;;;;;;5085304;28;20494;-56
2021/12/28 10:38:17;;;;;;;0.50;0.50;;;14.60;65.10;;;;;;5079070;28;20960;-56
2021/12/28 10:40:46;;;;;;;0.60;0.60;;;14.50;66.10;;;;;;5086627;28;20483;-57
2021/12/28 10:43:13;;;;;;;0.70;0.70;;;14.50;65.70;;;;;;5082561;28;20445;-56
2021/12/28 10:45:40;;;;;;;0.73;0.67;;;14.40;65.60;;;;;;5087203;28;20426;-56
2021/12/28 10:48:12;;;;;;;0.80;0.80;;;14.60;66.10;;;;;;5075874;28;20438;-56
2021/12/28 10:50:45;;;;;;;0.77;0.60;;;14.60;65.90;;;;;;5082749;28;20589;-56
2021/12/28 10:53:17;;;;;;;0.90;0.77;;;14.70;66.10;;;;;;5087988;28;20445;-56
2021/12/28 10:55:46;;;;;;;0.63;0.63;;;14.80;65.50;;;;;;5093327;28;20442;-56
2021/12/28 10:58:35;;;;;;;0.80;0.53;;;14.80;65.50;;;;;;5079444;28;20862;-54
2021/12/28 11:01:05;;;;;;;0.87;0.50;;;14.80;65.50;;;;;;5085577;28;20530;-55
2021/12/28 11:03:34;;;;;;;1.13;0.60;;;14.80;66.00;;;;;;5087845;28;20483;-55
2021/12/28 11:06:06;;;;;;;1.20;0.70;;;14.80;66.10;;;;;;5071131;28;20438;-55
2021/12/28 11:08:32;;;;;;;0.80;0.80;;;14.80;66.10;;;;;;5079841;28;20513;-55
2021/12/28 11:11:06;;;;;;;0.60;0.60;;;15.00;66.40;;;;;;5078978;28;20485;-56
2021/12/28 11:13:32;;;;;;;0.70;0.50;;;15.20;65.80;;;;;;5075916;28;20453;-57
2021/12/28 11:16:00;;;;;;;0.97;0.73;;;15.10;66.10;;;;;;5082550;28;20441;-56
2021/12/28 11:18:33;;;;;;;1.07;0.60;;;15.00;65.90;;;;;;5086437;28;20517;-56
2021/12/28 11:21:21;;;;;;;0.70;0.60;;;15.00;66.30;;;;;;5085115;28;20445;-57
2021/12/28 11:23:55;;;;;;;0.67;0.67;;;15.20;66.60;;;;;;5087536;28;20528;-56
2021/12/28 11:26:26;;;;;;;4.23;0.60;;;15.30;66.50;;;;;;5082136;28;20433;-57
2021/12/28 11:29:05;;;;;;;0.93;0.60;;;15.30;66.50;;;;;;5081126;28;20448;-56
2021/12/28 11:31:40;;;;;;;0.70;0.60;;;15.20;66.50;;;;;;5077627;28;20601;-56
2021/12/28 11:34:30;;;;;;;0.93;0.60;;;15.10;66.90;;;;;;5081829;28;20952;-56
2021/12/28 11:37:07;;;;;;;0.83;0.50;;;15.10;67.00;;;;;;5071975;28;20976;-57
2021/12/28 11:39:40;;;;;;;0.50;0.50;;;15.20;66.80;;;;;;5083087;28;20433;-57
2021/12/28 11:42:08;;;;;;;1.17;0.70;;;15.10;66.90;;;;;;5079637;28;20940;-57
2021/12/28 11:44:37;;;;;;;0.80;0.80;;;15.10;66.70;;;;;;5081823;28;20765;-57
2021/12/28 11:47:06;;;;;;;0.60;0.60;;;15.10;67.20;;;;;;5085985;28;20432;-57
2021/12/28 11:49:33;;;;;;;1.57;0.70;;;15.20;67.20;;;;;;5085220;28;20793;-57
2021/12/28 11:52:04;;;;;;;0.83;0.67;;;15.10;67.30;;;;;;5083732;28;20433;-57
2021/12/28 11:54:38;;;;;;;0.70;0.70;;;15.00;67.60;;;;;;5085008;28;20533;-57
2021/12/28 11:57:18;;;;;;;0.60;0.50;;;15.20;68.10;;;;;;5092483;28;20429;-57
2021/12/28 12:00:02;;;;;;;0.63;0.60;;;15.30;67.40;;;;;;5092452;28;20448;-57
2021/12/28 12:02:54;;;;;;;2.60;0.70;;;15.40;66.60;;;;;;5090194;28;20433;-57
2021/12/28 12:05:25;;;;;;;0.67;0.67;;;15.30;66.90;;;;;;5091254;28;20490;-58
2021/12/28 12:08:16;;;;;;;0.63;0.63;;;15.40;67.30;;;;;;5092168;28;20443;-57
2021/12/28 12:10:45;;;;;;;1.40;1.30;;;15.40;66.70;;;;;;5092604;28;20592;-57
2021/12/28 12:13:28;;;;;;;0.80;0.80;;;15.30;67.10;;;;;;5089445;28;20464;-58
2021/12/28 12:16:02;;;;;;;0.73;0.70;;;15.20;67.60;;;;;;5082862;28;20471;-58
2021/12/28 12:18:45;;;;;;;1.00;0.90;;;15.30;67.40;;;;;;5088441;28;20541;-57
2021/12/28 12:21:16;;;;;;;1.47;0.97;;;15.40;67.10;;;;;;5082706;28;20815;-57
2021/12/28 12:23:46;;;;;;;0.80;0.80;;;15.40;66.70;;;;;;5077520;28;20433;-57
2021/12/28 12:26:17;;;;;;;0.67;0.67;;;15.30;67.40;;;;;;5085561;28;20461;-58
2021/12/28 12:28:52;;;;;;;0.80;0.67;;;15.50;68.40;;;;;;5076232;28;20543;-57
2021/12/28 12:31:27;;;;;;;0.90;0.90;;;15.40;69.00;;;;;;5090415;28;20479;-57
2021/12/28 12:33:53;;;;;;;0.70;0.70;;;15.50;69.20;;;;;;5088779;28;20432;-58
2021/12/28 12:36:20;;;;;;;0.73;0.67;;;15.40;69.10;;;;;;5087054;28;20821;-58
2021/12/28 12:38:47;;;;;;;1.20;0.87;;;15.30;69.50;;;;;;5091684;28;20210;-57
2021/12/28 12:41:19;;;;;;;1.10;1.00;;;15.40;70.20;;;;;;5091026;28;20441;-57
2021/12/28 12:43:51;;;;;;;1.17;0.83;;;15.40;70.40;;;;;;5085502;28;20949;-57
2021/12/28 12:46:47;;;;;;;1.10;1.00;;;15.50;70.30;;;;;;5089164;28;20440;-57
2021/12/28 12:49:17;;;;;;;1.17;1.07;;;15.70;69.90;;;;;;5075971;28;20451;-57
2021/12/28 12:51:50;;;;;;;3.50;0.90;;;15.70;69.50;;;;;;5083690;28;20476;-57